sensor_id;sensor_type;location;lat;lon;timestamp;pressure;altitude;pressure_sealevel;temperature;humidity
77574;BME280;66710;48.868;9.080;2023-04-01T00:01:43;96657.97;;;7.88;76.38
77574;BME280;66710;48.868;9.080;2023-04-01T00:04:09;96652.72;;;7.73;77.25
77574;BME280;66710;48.868;9.080;2023-04-01T00:06:34;96659.25;;;7.72;76.87
77574;BME280;66710;48.868;9.080;2023-04-01T00:09:00;96652.91;;;7.82;76.63
77574;BME280;66710;48.868;9.080;2023-04-01T00:11:25;96657.97;;;7.88;76.04
77574;BME280;66710;48.868;9.080;2023-04-01T00:13:52;96652.56;;;7.88;76.05
77574;BME280;66710;48.868;9.080;2023-04-01T00:16:18;96657.41;;;7.91;75.71
77574;BME280;66710;48.868;9.080;2023-04-01T00:18:43;96668.47;;;7.95;75.95
77574;BME280;66710;48.868;9.080;2023-04-01T00:21:09;96667.78;;;7.84;77.14
77574;BME280;66710;48.868;9.080;2023-04-01T00:23:34;96654.81;;;7.81;78.17
77574;BME280;66710;48.868;9.080;2023-04-01T00:26:01;96670.09;;;7.72;78.04
77574;BME280;66710;48.868;9.080;2023-04-01T00:28:28;96651.13;;;7.72;78.15
77574;BME280;66710;48.868;9.080;2023-04-01T00:30:53;96653.72;;;7.82;77.31
77574;BME280;66710;48.868;9.080;2023-04-01T00:33:19;96664.91;;;7.75;77.55
77574;BME280;66710;48.868;9.080;2023-04-01T00:35:46;96658.53;;;7.85;76.77
77574;BME280;66710;48.868;9.080;2023-04-01T00:38:12;96658.31;;;7.82;76.66
77574;BME280;66710;48.868;9.080;2023-04-01T00:40:40;96666.28;;;7.73;77.71
77574;BME280;66710;48.868;9.080;2023-04-01T00:43:11;96668.69;;;7.74;77.62
77574;BME280;66710;48.868;9.080;2023-04-01T00:45:39;96668.94;;;7.78;77.33
77574;BME280;66710;48.868;9.080;2023-04-01T00:48:20;96667.56;;;7.81;77.04
77574;BME280;66710;48.868;9.080;2023-04-01T00:50:55;96667.22;;;7.87;76.89
77574;BME280;66710;48.868;9.080;2023-04-01T00:53:23;96667.44;;;7.91;76.56
77574;BME280;66710;48.868;9.080;2023-04-01T00:55:54;96664.56;;;7.82;77.20
77574;BME280;66710;48.868;9.080;2023-04-01T00:58:24;96664.28;;;7.84;76.91
77574;BME280;66710;48.868;9.080;2023-04-01T01:00:50;96664.50;;;7.87;77.17
77574;BME280;66710;48.868;9.080;2023-04-01T01:03:16;96663.41;;;7.88;76.92
77574;BME280;66710;48.868;9.080;2023-04-01T01:06:07;96669.50;;;7.99;76.09
77574;BME280;66710;48.868;9.080;2023-04-01T01:11:08;96665.81;;;7.90;76.96
77574;BME280;66710;48.868;9.080;2023-04-01T01:13:45;96665.53;;;7.91;76.67
77574;BME280;66710;48.868;9.080;2023-04-01T01:16:23;96667.50;;;7.86;77.22
77574;BME280;66710;48.868;9.080;2023-04-01T01:22:06;96668.59;;;7.85;77.53
77574;BME280;66710;48.868;9.080;2023-04-01T01:24:41;96672.09;;;7.85;77.27
77574;BME280;66710;48.868;9.080;2023-04-01T01:27:12;96665.13;;;7.79;77.95
77574;BME280;66710;48.868;9.080;2023-04-01T01:35:19;96660.91;;;7.92;77.48
77574;BME280;66710;48.868;9.080;2023-04-01T01:37:46;96653.84;;;7.96;76.70
77574;BME280;66710;48.868;9.080;2023-04-01T01:40:13;96669.00;;;7.97;77.50
77574;BME280;66710;48.868;9.080;2023-04-01T01:42:45;96667.31;;;8.01;76.90
77574;BME280;66710;48.868;9.080;2023-04-01T01:45:12;96660.28;;;8.00;76.80
77574;BME280;66710;48.868;9.080;2023-04-01T01:47:40;96659.53;;;7.94;77.37
77574;BME280;66710;48.868;9.080;2023-04-01T01:50:07;96658.66;;;7.99;77.78
77574;BME280;66710;48.868;9.080;2023-04-01T01:52:34;96663.00;;;8.00;77.09
77574;BME280;66710;48.868;9.080;2023-04-01T01:55:00;96657.13;;;7.93;77.85
77574;BME280;66710;48.868;9.080;2023-04-01T01:57:34;96666.06;;;7.93;77.50
77574;BME280;66710;48.868;9.080;2023-04-01T02:00:07;96660.69;;;7.88;78.81
77574;BME280;66710;48.868;9.080;2023-04-01T02:02:40;96666.09;;;7.88;79.02
77574;BME280;66710;48.868;9.080;2023-04-01T02:05:07;96653.38;;;7.89;78.71
77574;BME280;66710;48.868;9.080;2023-04-01T02:07:35;96657.47;;;7.86;78.85
77574;BME280;66710;48.868;9.080;2023-04-01T02:10:03;96665.09;;;7.84;79.43
77574;BME280;66710;48.868;9.080;2023-04-01T02:12:29;96656.19;;;7.78;79.35
77574;BME280;66710;48.868;9.080;2023-04-01T02:15:08;96668.34;;;7.81;78.96
77574;BME280;66710;48.868;9.080;2023-04-01T02:17:38;96658.41;;;7.76;79.40
77574;BME280;66710;48.868;9.080;2023-04-01T02:20:13;96659.72;;;7.79;79.40
77574;BME280;66710;48.868;9.080;2023-04-01T02:22:43;96666.53;;;7.76;79.22
77574;BME280;66710;48.868;9.080;2023-04-01T02:25:18;96661.97;;;7.72;80.05
77574;BME280;66710;48.868;9.080;2023-04-01T02:27:44;96654.06;;;7.75;79.21
77574;BME280;66710;48.868;9.080;2023-04-01T02:30:13;96655.97;;;7.75;79.11
77574;BME280;66710;48.868;9.080;2023-04-01T02:32:39;96654.56;;;7.77;79.04
77574;BME280;66710;48.868;9.080;2023-04-01T02:35:07;96655.13;;;7.74;78.62
77574;BME280;66710;48.868;9.080;2023-04-01T02:37:36;96659.81;;;7.69;78.85
77574;BME280;66710;48.868;9.080;2023-04-01T02:40:03;96660.94;;;7.68;79.14
77574;BME280;66710;48.868;9.080;2023-04-01T02:42:31;96672.06;;;7.66;79.88
77574;BME280;66710;48.868;9.080;2023-04-01T02:44:56;96668.22;;;7.67;79.18
77574;BME280;66710;48.868;9.080;2023-04-01T02:47:22;96671.28;;;7.60;80.51
77574;BME280;66710;48.868;9.080;2023-04-01T02:49:47;96673.19;;;7.60;80.06
77574;BME280;66710;48.868;9.080;2023-04-01T02:52:13;96676.69;;;7.60;79.91
77574;BME280;66710;48.868;9.080;2023-04-01T02:54:38;96675.56;;;7.67;79.06
77574;BME280;66710;48.868;9.080;2023-04-01T02:57:03;96666.13;;;7.64;79.68
77574;BME280;66710;48.868;9.080;2023-04-01T02:59:29;96671.91;;;7.52;80.16
77574;BME280;66710;48.868;9.080;2023-04-01T03:01:54;96659.44;;;7.51;79.92
77574;BME280;66710;48.868;9.080;2023-04-01T03:04:20;96663.50;;;7.54;79.58
77574;BME280;66710;48.868;9.080;2023-04-01T03:06:45;96670.25;;;7.56;78.52
77574;BME280;66710;48.868;9.080;2023-04-01T03:09:11;96672.66;;;7.58;78.15
77574;BME280;66710;48.868;9.080;2023-04-01T03:11:36;96679.16;;;7.57;78.63
77574;BME280;66710;48.868;9.080;2023-04-01T03:14:02;96677.81;;;7.59;78.11
77574;BME280;66710;48.868;9.080;2023-04-01T03:16:27;96670.53;;;7.55;78.05
77574;BME280;66710;48.868;9.080;2023-04-01T03:18:52;96676.38;;;7.67;77.11
77574;BME280;66710;48.868;9.080;2023-04-01T03:21:23;96668.69;;;7.74;75.46
77574;BME280;66710;48.868;9.080;2023-04-01T03:23:49;96665.53;;;7.67;76.21
77574;BME280;66710;48.868;9.080;2023-04-01T03:26:15;96668.00;;;7.64;75.40
77574;BME280;66710;48.868;9.080;2023-04-01T03:28:41;96671.78;;;7.68;75.66
77574;BME280;66710;48.868;9.080;2023-04-01T03:31:06;96665.94;;;7.55;75.85
77574;BME280;66710;48.868;9.080;2023-04-01T03:33:32;96669.22;;;7.52;76.77
77574;BME280;66710;48.868;9.080;2023-04-01T03:35:58;96673.00;;;7.51;77.11
77574;BME280;66710;48.868;9.080;2023-04-01T03:38:23;96665.50;;;7.43;77.08
77574;BME280;66710;48.868;9.080;2023-04-01T03:40:49;96673.44;;;7.34;78.29
77574;BME280;66710;48.868;9.080;2023-04-01T03:43:14;96666.13;;;7.35;77.72
77574;BME280;66710;48.868;9.080;2023-04-01T03:45:48;96656.41;;;7.29;78.12
77574;BME280;66710;48.868;9.080;2023-04-01T03:48:14;96659.91;;;7.34;77.59
77574;BME280;66710;48.868;9.080;2023-04-01T03:50:40;96653.69;;;7.29;77.83
77574;BME280;66710;48.868;9.080;2023-04-01T03:53:05;96652.66;;;7.25;77.84
77574;BME280;66710;48.868;9.080;2023-04-01T03:55:31;96662.41;;;7.26;77.29
77574;BME280;66710;48.868;9.080;2023-04-01T03:57:56;96662.41;;;7.26;77.70
77574;BME280;66710;48.868;9.080;2023-04-01T04:00:22;96644.81;;;7.23;76.73
77574;BME280;66710;48.868;9.080;2023-04-01T04:02:47;96648.91;;;7.20;77.96
77574;BME280;66710;48.868;9.080;2023-04-01T04:05:13;96652.41;;;7.21;77.18
77574;BME280;66710;48.868;9.080;2023-04-01T04:07:38;96648.13;;;7.20;77.75
77574;BME280;66710;48.868;9.080;2023-04-01T04:10:05;96646.72;;;7.22;77.01
77574;BME280;66710;48.868;9.080;2023-04-01T04:12:30;96638.59;;;7.22;77.29
77574;BME280;66710;48.868;9.080;2023-04-01T04:14:56;96643.97;;;7.28;76.98
77574;BME280;66710;48.868;9.080;2023-04-01T04:17:21;96634.16;;;7.32;76.05
77574;BME280;66710;48.868;9.080;2023-04-01T04:19:47;96640.97;;;7.29;76.42
77574;BME280;66710;48.868;9.080;2023-04-01T04:22:12;96638.78;;;7.31;76.62
77574;BME280;66710;48.868;9.080;2023-04-01T04:24:37;96632.03;;;7.29;76.87
77574;BME280;66710;48.868;9.080;2023-04-01T04:27:03;96633.41;;;7.26;76.74
77574;BME280;66710;48.868;9.080;2023-04-01T04:29:29;96631.56;;;7.21;77.20
77574;BME280;66710;48.868;9.080;2023-04-01T04:31:55;96629.44;;;7.18;76.98
77574;BME280;66710;48.868;9.080;2023-04-01T04:34:20;96645.09;;;7.21;76.72
77574;BME280;66710;48.868;9.080;2023-04-01T04:36:48;96622.72;;;7.40;75.74
77574;BME280;66710;48.868;9.080;2023-04-01T04:39:14;96631.19;;;7.33;76.04
77574;BME280;66710;48.868;9.080;2023-04-01T04:41:40;96635.53;;;7.34;75.66
77574;BME280;66710;48.868;9.080;2023-04-01T04:44:05;96637.41;;;7.34;75.01
77574;BME280;66710;48.868;9.080;2023-04-01T04:46:31;96627.16;;;7.31;76.23
77574;BME280;66710;48.868;9.080;2023-04-01T04:48:56;96641.16;;;7.38;75.61
77574;BME280;66710;48.868;9.080;2023-04-01T04:51:22;96635.78;;;7.33;76.30
77574;BME280;66710;48.868;9.080;2023-04-01T04:53:48;96628.00;;;7.26;75.98
77574;BME280;66710;48.868;9.080;2023-04-01T04:56:18;96626.09;;;7.27;75.27
77574;BME280;66710;48.868;9.080;2023-04-01T04:58:44;96632.34;;;7.27;75.41
77574;BME280;66710;48.868;9.080;2023-04-01T05:01:11;96635.78;;;7.33;75.41
77574;BME280;66710;48.868;9.080;2023-04-01T05:03:38;96635.84;;;7.28;75.87
77574;BME280;66710;48.868;9.080;2023-04-01T05:06:04;96639.91;;;7.25;76.01
77574;BME280;66710;48.868;9.080;2023-04-01T05:08:30;96631.66;;;7.40;75.68
77574;BME280;66710;48.868;9.080;2023-04-01T05:10:55;96622.81;;;7.30;76.09
77574;BME280;66710;48.868;9.080;2023-04-01T05:13:20;96639.34;;;7.28;75.83
77574;BME280;66710;48.868;9.080;2023-04-01T05:15:46;96626.59;;;7.29;75.88
77574;BME280;66710;48.868;9.080;2023-04-01T05:18:11;96629.03;;;7.30;76.04
77574;BME280;66710;48.868;9.080;2023-04-01T05:20:36;96629.31;;;7.29;76.11
77574;BME280;66710;48.868;9.080;2023-04-01T05:23:02;96623.91;;;7.29;76.48
77574;BME280;66710;48.868;9.080;2023-04-01T05:25:27;96636.94;;;7.27;76.58
77574;BME280;66710;48.868;9.080;2023-04-01T05:27:53;96635.47;;;7.39;75.45
77574;BME280;66710;48.868;9.080;2023-04-01T05:30:18;96637.69;;;7.32;75.83
77574;BME280;66710;48.868;9.080;2023-04-01T05:32:44;96620.81;;;7.40;75.88
77574;BME280;66710;48.868;9.080;2023-04-01T05:35:10;96628.88;;;7.46;75.69
77574;BME280;66710;48.868;9.080;2023-04-01T05:37:36;96631.66;;;7.40;76.04
77574;BME280;66710;48.868;9.080;2023-04-01T05:40:02;96609.69;;;7.42;76.19
77574;BME280;66710;48.868;9.080;2023-04-01T05:42:28;96615.09;;;7.42;76.65
77574;BME280;66710;48.868;9.080;2023-04-01T05:44:53;96601.75;;;7.51;75.53
77574;BME280;66710;48.868;9.080;2023-04-01T05:47:20;96601.88;;;7.65;74.69
77574;BME280;66710;48.868;9.080;2023-04-01T05:49:45;96607.34;;;7.59;75.64
77574;BME280;66710;48.868;9.080;2023-04-01T05:52:11;96598.41;;;7.59;75.75
77574;BME280;66710;48.868;9.080;2023-04-01T05:54:36;96601.50;;;7.47;76.20
77574;BME280;66710;48.868;9.080;2023-04-01T05:57:02;96602.53;;;7.51;76.70
77574;BME280;66710;48.868;9.080;2023-04-01T05:59:28;96598.09;;;7.60;75.63
77574;BME280;66710;48.868;9.080;2023-04-01T06:01:53;96591.81;;;7.65;74.95
77574;BME280;66710;48.868;9.080;2023-04-01T06:04:19;96583.81;;;7.79;74.85
77574;BME280;66710;48.868;9.080;2023-04-01T06:06:44;96576.00;;;7.96;72.83
77574;BME280;66710;48.868;9.080;2023-04-01T06:09:15;96588.66;;;8.01;71.55
77574;BME280;66710;48.868;9.080;2023-04-01T06:14:50;96603.22;;;8.10;71.42
77574;BME280;66710;48.868;9.080;2023-04-01T06:23:52;96602.41;;;8.29;70.69
77574;BME280;66710;48.868;9.080;2023-04-01T06:29:12;96608.63;;;8.29;70.58
77574;BME280;66710;48.868;9.080;2023-04-01T06:51:28;96604.09;;;8.25;72.94
77574;BME280;66710;48.868;9.080;2023-04-01T06:54:17;96605.81;;;8.21;73.13
77574;BME280;66710;48.868;9.080;2023-04-01T06:56:45;96602.53;;;8.19;73.59
77574;BME280;66710;48.868;9.080;2023-04-01T06:59:19;96611.22;;;8.21;73.61
77574;BME280;66710;48.868;9.080;2023-04-01T07:01:51;96607.09;;;8.23;74.47
77574;BME280;66710;48.868;9.080;2023-04-01T07:04:37;96615.81;;;8.20;73.96
77574;BME280;66710;48.868;9.080;2023-04-01T07:10:10;96612.88;;;8.16;74.67
77574;BME280;66710;48.868;9.080;2023-04-01T07:12:46;96613.72;;;8.17;74.95
77574;BME280;66710;48.868;9.080;2023-04-01T07:17:43;96621.25;;;8.20;76.00
77574;BME280;66710;48.868;9.080;2023-04-01T07:20:26;96617.88;;;8.09;75.36
77574;BME280;66710;48.868;9.080;2023-04-01T07:22:57;96608.63;;;8.10;74.26
77574;BME280;66710;48.868;9.080;2023-04-01T07:25:35;96625.78;;;8.06;75.63
77574;BME280;66710;48.868;9.080;2023-04-01T07:28:10;96642.56;;;8.08;75.07
77574;BME280;66710;48.868;9.080;2023-04-01T07:33:15;96622.19;;;8.10;75.15
77574;BME280;66710;48.868;9.080;2023-04-01T07:35:47;96612.22;;;8.06;74.25
77574;BME280;66710;48.868;9.080;2023-04-01T07:43:57;96631.31;;;8.20;74.17
77574;BME280;66710;48.868;9.080;2023-04-01T07:52:26;96639.03;;;8.50;74.98
77574;BME280;66710;48.868;9.080;2023-04-01T07:55:12;96634.16;;;8.52;73.89
77574;BME280;66710;48.868;9.080;2023-04-01T07:57:55;96635.16;;;8.57;75.08
77574;BME280;66710;48.868;9.080;2023-04-01T08:00:49;96636.03;;;8.33;74.49
77574;BME280;66710;48.868;9.080;2023-04-01T08:03:34;96633.94;;;8.49;74.97
77574;BME280;66710;48.868;9.080;2023-04-01T08:09:08;96639.13;;;8.45;74.87
77574;BME280;66710;48.868;9.080;2023-04-01T08:14:29;96642.47;;;8.37;76.26
77574;BME280;66710;48.868;9.080;2023-04-01T08:19:59;96647.31;;;8.40;75.99
77574;BME280;66710;48.868;9.080;2023-04-01T08:22:43;96651.53;;;8.51;76.26
77574;BME280;66710;48.868;9.080;2023-04-01T08:25:24;96654.47;;;8.55;76.78
77574;BME280;66710;48.868;9.080;2023-04-01T08:27:58;96653.78;;;8.44;75.05
77574;BME280;66710;48.868;9.080;2023-04-01T08:30:28;96669.38;;;8.33;76.34
77574;BME280;66710;48.868;9.080;2023-04-01T08:35:49;96658.78;;;8.13;80.57
77574;BME280;66710;48.868;9.080;2023-04-01T08:38:34;96663.84;;;7.95;81.93
77574;BME280;66710;48.868;9.080;2023-04-01T08:46:34;96654.19;;;7.89;81.15
77574;BME280;66710;48.868;9.080;2023-04-01T08:52:40;96642.88;;;7.82;81.70
77574;BME280;66710;48.868;9.080;2023-04-01T08:58:18;96663.41;;;7.88;80.64
77574;BME280;66710;48.868;9.080;2023-04-01T09:00:53;96652.56;;;7.88;81.35
77574;BME280;66710;48.868;9.080;2023-04-01T09:04:00;96653.53;;;7.97;81.11
77574;BME280;66710;48.868;9.080;2023-04-01T09:20:55;96637.59;;;8.77;77.78
77574;BME280;66710;48.868;9.080;2023-04-01T09:29:51;96652.91;;;8.87;75.21
77574;BME280;66710;48.868;9.080;2023-04-01T09:37:39;96661.41;;;8.80;74.29
77574;BME280;66710;48.868;9.080;2023-04-01T09:43:05;96660.69;;;8.75;73.67
77574;BME280;66710;48.868;9.080;2023-04-01T09:45:35;96655.78;;;8.77;73.99
77574;BME280;66710;48.868;9.080;2023-04-01T09:53:41;96673.91;;;8.81;72.15
77574;BME280;66710;48.868;9.080;2023-04-01T09:56:46;96667.06;;;8.84;72.58
77574;BME280;66710;48.868;9.080;2023-04-01T10:02:38;96677.06;;;8.88;70.92
77574;BME280;66710;48.868;9.080;2023-04-01T10:13:42;96675.34;;;9.11;71.03
77574;BME280;66710;48.868;9.080;2023-04-01T10:33:16;96686.28;;;9.06;71.24
77574;BME280;66710;48.868;9.080;2023-04-01T10:47:31;96680.63;;;9.03;71.15
77574;BME280;66710;48.868;9.080;2023-04-01T10:52:49;96675.97;;;9.22;70.71
77574;BME280;66710;48.868;9.080;2023-04-01T11:00:55;96676.06;;;9.50;69.35
77574;BME280;66710;48.868;9.080;2023-04-01T11:04:07;96697.75;;;9.55;68.41
77574;BME280;66710;48.868;9.080;2023-04-01T11:12:27;96677.63;;;9.70;67.16
77574;BME280;66710;48.868;9.080;2023-04-01T11:17:54;96694.75;;;9.71;66.00
77574;BME280;66710;48.868;9.080;2023-04-01T11:20:35;96681.56;;;10.05;66.63
77574;BME280;66710;48.868;9.080;2023-04-01T11:23:32;96694.78;;;9.98;65.87
77574;BME280;66710;48.868;9.080;2023-04-01T11:26:21;96692.75;;;10.04;66.87
77574;BME280;66710;48.868;9.080;2023-04-01T11:28:55;96695.38;;;10.09;66.39
77574;BME280;66710;48.868;9.080;2023-04-01T11:31:37;96699.81;;;9.91;65.68
77574;BME280;66710;48.868;9.080;2023-04-01T11:36:58;96711.28;;;9.88;65.57
77574;BME280;66710;48.868;9.080;2023-04-01T11:39:41;96701.84;;;9.99;66.62
77574;BME280;66710;48.868;9.080;2023-04-01T11:42:20;96707.28;;;10.13;66.64
77574;BME280;66710;48.868;9.080;2023-04-01T11:45:01;96709.09;;;10.04;66.87
77574;BME280;66710;48.868;9.080;2023-04-01T11:47:57;96716.34;;;9.95;67.08
77574;BME280;66710;48.868;9.080;2023-04-01T11:53:33;96701.50;;;9.73;66.16
77574;BME280;66710;48.868;9.080;2023-04-01T11:56:39;96707.75;;;9.87;67.36
77574;BME280;66710;48.868;9.080;2023-04-01T12:07:21;96730.84;;;9.90;67.05
77574;BME280;66710;48.868;9.080;2023-04-01T12:10:04;96716.84;;;9.97;67.75
77574;BME280;66710;48.868;9.080;2023-04-01T12:12:40;96700.94;;;9.90;67.64
77574;BME280;66710;48.868;9.080;2023-04-01T12:18:23;96722.69;;;10.04;66.40
77574;BME280;66710;48.868;9.080;2023-04-01T12:20:57;96714.19;;;9.92;66.48
77574;BME280;66710;48.868;9.080;2023-04-01T12:26:22;96715.94;;;10.01;67.45
77574;BME280;66710;48.868;9.080;2023-04-01T12:37:27;96743.25;;;10.10;64.47
77574;BME280;66710;48.868;9.080;2023-04-01T12:43:02;96739.28;;;10.35;64.36
77574;BME280;66710;48.868;9.080;2023-04-01T12:45:49;96732.25;;;10.01;64.38
77574;BME280;66710;48.868;9.080;2023-04-01T12:48:35;96731.34;;;9.92;63.89
77574;BME280;66710;48.868;9.080;2023-04-01T12:51:08;96751.91;;;9.98;64.28
77574;BME280;66710;48.868;9.080;2023-04-01T12:53:46;96750.41;;;9.92;64.99
77574;BME280;66710;48.868;9.080;2023-04-01T13:05:13;96752.50;;;9.81;65.18
77574;BME280;66710;48.868;9.080;2023-04-01T13:08:03;96763.28;;;9.86;65.57
77574;BME280;66710;48.868;9.080;2023-04-01T13:13:39;96752.03;;;9.60;66.43
77574;BME280;66710;48.868;9.080;2023-04-01T13:16:27;96759.63;;;9.77;66.82
77574;BME280;66710;48.868;9.080;2023-04-01T13:19:06;96766.97;;;9.77;67.66
77574;BME280;66710;48.868;9.080;2023-04-01T13:29:38;96761.81;;;10.08;67.89
77574;BME280;66710;48.868;9.080;2023-04-01T13:37:33;96766.34;;;9.99;67.50
77574;BME280;66710;48.868;9.080;2023-04-01T13:40:34;96794.22;;;9.91;66.53
77574;BME280;66710;48.868;9.080;2023-04-01T13:54:15;96793.28;;;9.81;69.60
77574;BME280;66710;48.868;9.080;2023-04-01T13:57:40;96798.69;;;9.67;69.12
77574;BME280;66710;48.868;9.080;2023-04-01T14:00:31;96771.63;;;9.76;67.73
77574;BME280;66710;48.868;9.080;2023-04-01T14:08:20;96764.38;;;9.85;67.30
77574;BME280;66710;48.868;9.080;2023-04-01T14:10:58;96781.66;;;9.76;67.47
77574;BME280;66710;48.868;9.080;2023-04-01T14:13:32;96803.06;;;9.82;68.48
77574;BME280;66710;48.868;9.080;2023-04-01T14:16:04;96789.63;;;9.72;68.12
77574;BME280;66710;48.868;9.080;2023-04-01T14:31:34;96812.06;;;9.07;71.78
77574;BME280;66710;48.868;9.080;2023-04-01T14:34:14;96804.78;;;9.02;70.68
77574;BME280;66710;48.868;9.080;2023-04-01T14:36:49;96811.38;;;8.96;71.29
77574;BME280;66710;48.868;9.080;2023-04-01T14:39:39;96818.44;;;8.97;70.28
77574;BME280;66710;48.868;9.080;2023-04-01T14:42:38;96809.19;;;8.98;70.69
77574;BME280;66710;48.868;9.080;2023-04-01T14:45:21;96815.38;;;9.04;71.13
77574;BME280;66710;48.868;9.080;2023-04-01T14:47:53;96810.69;;;9.09;69.81
77574;BME280;66710;48.868;9.080;2023-04-01T14:50:41;96809.25;;;9.12;70.29
77574;BME280;66710;48.868;9.080;2023-04-01T14:55:36;96806.94;;;9.24;69.84
77574;BME280;66710;48.868;9.080;2023-04-01T14:58:15;96810.16;;;9.26;70.10
77574;BME280;66710;48.868;9.080;2023-04-01T15:03:25;96821.72;;;9.37;69.45
77574;BME280;66710;48.868;9.080;2023-04-01T15:06:06;96812.44;;;9.38;70.35
77574;BME280;66710;48.868;9.080;2023-04-01T15:11:41;96821.84;;;9.46;70.41
77574;BME280;66710;48.868;9.080;2023-04-01T15:14:27;96807.88;;;9.53;70.34
77574;BME280;66710;48.868;9.080;2023-04-01T15:17:16;96824.19;;;9.53;69.51
77574;BME280;66710;48.868;9.080;2023-04-01T15:19:57;96821.69;;;9.56;69.73
77574;BME280;66710;48.868;9.080;2023-04-01T15:35:58;96836.03;;;9.62;68.81
77574;BME280;66710;48.868;9.080;2023-04-01T15:43:46;96845.56;;;9.59;67.99
77574;BME280;66710;48.868;9.080;2023-04-01T15:46:43;96835.19;;;9.61;68.61
77574;BME280;66710;48.868;9.080;2023-04-01T15:57:08;96861.22;;;9.67;68.29
77574;BME280;66710;48.868;9.080;2023-04-01T15:59:47;96868.44;;;9.58;67.40
77574;BME280;66710;48.868;9.080;2023-04-01T16:02:31;96847.78;;;9.57;68.13
77574;BME280;66710;48.868;9.080;2023-04-01T16:07:59;96857.84;;;9.57;66.90
77574;BME280;66710;48.868;9.080;2023-04-01T16:13:36;96862.03;;;9.49;67.79
77574;BME280;66710;48.868;9.080;2023-04-01T16:24:17;96868.06;;;9.46;67.10
77574;BME280;66710;48.868;9.080;2023-04-01T16:29:32;96894.13;;;9.47;67.29
77574;BME280;66710;48.868;9.080;2023-04-01T16:32:22;96860.94;;;9.50;66.92
77574;BME280;66710;48.868;9.080;2023-04-01T16:35:04;96880.84;;;9.45;67.22
77574;BME280;66710;48.868;9.080;2023-04-01T16:37:54;96882.47;;;9.46;67.81
77574;BME280;66710;48.868;9.080;2023-04-01T16:43:35;96878.72;;;9.42;68.31
77574;BME280;66710;48.868;9.080;2023-04-01T16:46:26;96875.53;;;9.35;68.46
77574;BME280;66710;48.868;9.080;2023-04-01T16:54:28;96871.84;;;9.26;69.79
77574;BME280;66710;48.868;9.080;2023-04-01T16:57:10;96872.06;;;9.29;69.53
77574;BME280;66710;48.868;9.080;2023-04-01T17:02:28;96872.91;;;9.30;70.05
77574;BME280;66710;48.868;9.080;2023-04-01T17:05:13;96868.50;;;9.34;69.33
77574;BME280;66710;48.868;9.080;2023-04-01T17:08:17;96881.06;;;9.30;69.80
77574;BME280;66710;48.868;9.080;2023-04-01T17:13:38;96881.25;;;9.15;71.02
77574;BME280;66710;48.868;9.080;2023-04-01T17:16:55;96894.84;;;9.15;70.37
77574;BME280;66710;48.868;9.080;2023-04-01T17:27:48;96904.25;;;9.22;70.44
77574;BME280;66710;48.868;9.080;2023-04-01T17:30:35;96913.19;;;9.23;70.83
77574;BME280;66710;48.868;9.080;2023-04-01T17:33:22;96917.31;;;9.20;71.28
77574;BME280;66710;48.868;9.080;2023-04-01T17:38:49;96937.59;;;9.28;70.29
77574;BME280;66710;48.868;9.080;2023-04-01T17:44:49;96949.00;;;9.30;69.70
77574;BME280;66710;48.868;9.080;2023-04-01T17:47:52;96956.09;;;9.26;69.91
77574;BME280;66710;48.868;9.080;2023-04-01T17:50:44;96960.28;;;9.18;70.72
77574;BME280;66710;48.868;9.080;2023-04-01T17:53:23;96965.59;;;9.04;71.47
77574;BME280;66710;48.868;9.080;2023-04-01T17:56:23;96959.50;;;8.88;73.37
77574;BME280;66710;48.868;9.080;2023-04-01T18:04:47;96956.75;;;8.64;74.94
77574;BME280;66710;48.868;9.080;2023-04-01T18:16:02;96967.41;;;8.56;74.83
77574;BME280;66710;48.868;9.080;2023-04-01T18:18:48;96965.06;;;8.49;74.96
77574;BME280;66710;48.868;9.080;2023-04-01T18:21:33;96964.13;;;8.59;73.84
77574;BME280;66710;48.868;9.080;2023-04-01T18:24:18;96960.16;;;8.51;74.14
77574;BME280;66710;48.868;9.080;2023-04-01T18:29:41;96971.84;;;8.41;73.76
77574;BME280;66710;48.868;9.080;2023-04-01T18:32:19;96966.47;;;8.36;74.05
77574;BME280;66710;48.868;9.080;2023-04-01T18:34:55;96977.28;;;8.41;73.74
77574;BME280;66710;48.868;9.080;2023-04-01T18:45:37;96993.72;;;8.21;74.42
77574;BME280;66710;48.868;9.080;2023-04-01T18:48:15;97000.47;;;8.23;74.60
77574;BME280;66710;48.868;9.080;2023-04-01T18:50:51;97008.66;;;8.18;74.92
77574;BME280;66710;48.868;9.080;2023-04-01T18:55:54;97009.19;;;8.20;75.17
77574;BME280;66710;48.868;9.080;2023-04-01T19:01:07;97017.13;;;8.06;75.61
77574;BME280;66710;48.868;9.080;2023-04-01T19:04:12;97015.59;;;7.95;75.85
77574;BME280;66710;48.868;9.080;2023-04-01T19:06:45;97014.50;;;7.96;75.28
77574;BME280;66710;48.868;9.080;2023-04-01T19:12:00;97016.78;;;7.78;75.54
77574;BME280;66710;48.868;9.080;2023-04-01T19:17:07;97015.09;;;7.83;75.29
77574;BME280;66710;48.868;9.080;2023-04-01T19:22:36;97023.28;;;7.72;75.27
77574;BME280;66710;48.868;9.080;2023-04-01T19:28:13;97018.97;;;7.71;75.44
77574;BME280;66710;48.868;9.080;2023-04-01T19:38:27;97019.66;;;7.32;76.98
77574;BME280;66710;48.868;9.080;2023-04-01T19:40:58;97029.69;;;7.27;77.82
77574;BME280;66710;48.868;9.080;2023-04-01T19:46:37;97035.97;;;7.07;78.46
77574;BME280;66710;48.868;9.080;2023-04-01T19:49:41;97018.34;;;7.09;79.50
77574;BME280;66710;48.868;9.080;2023-04-01T19:52:31;97024.88;;;7.03;79.31
77574;BME280;66710;48.868;9.080;2023-04-01T19:58:09;97032.72;;;7.15;79.08
77574;BME280;66710;48.868;9.080;2023-04-01T20:00:42;97035.13;;;7.16;78.57
77574;BME280;66710;48.868;9.080;2023-04-01T20:06:17;97045.66;;;7.28;79.12
77574;BME280;66710;48.868;9.080;2023-04-01T20:11:48;97046.78;;;7.27;79.41
77574;BME280;66710;48.868;9.080;2023-04-01T20:14:40;97056.50;;;7.28;79.23
77574;BME280;66710;48.868;9.080;2023-04-01T20:17:19;97062.19;;;7.27;79.40
77574;BME280;66710;48.868;9.080;2023-04-01T20:22:31;97061.66;;;7.30;80.00
77574;BME280;66710;48.868;9.080;2023-04-01T20:28:12;97067.59;;;7.37;79.27
77574;BME280;66710;48.868;9.080;2023-04-01T20:39:03;97089.78;;;7.44;78.70
77574;BME280;66710;48.868;9.080;2023-04-01T20:41:44;97086.28;;;7.49;78.71
77574;BME280;66710;48.868;9.080;2023-04-01T20:44:12;97090.88;;;7.48;78.47
77574;BME280;66710;48.868;9.080;2023-04-01T20:47:06;97099.00;;;7.48;78.25